createdAt,value
2023-03-04T00:19:37.871Z,208.46
2023-03-04T00:20:38.071Z,207.10
2023-03-04T00:21:38.265Z,208.16
2023-03-04T00:22:38.482Z,210.11
2023-03-04T00:23:38.691Z,212.79
2023-03-04T00:24:38.888Z,211.43
2023-03-04T00:25:39.085Z,205.41
2023-03-04T00:26:39.287Z,202.24
2023-03-04T00:27:39.501Z,201.55
2023-03-04T00:28:39.710Z,203.95
2023-03-04T00:29:39.920Z,206.46
2023-03-04T00:30:40.119Z,207.31
2023-03-04T00:31:40.363Z,206.71
2023-03-04T00:32:40.572Z,203.13
2023-03-04T00:33:40.729Z,201.62
2023-03-04T00:34:40.935Z,203.88
2023-03-04T00:35:41.177Z,205.81
2023-03-04T00:36:41.339Z,208.33
2023-03-04T00:37:41.537Z,208.86
2023-03-04T00:38:41.741Z,209.31
2023-03-04T00:39:41.944Z,208.71
2023-03-04T00:40:42.157Z,205.62
2023-03-04T00:41:42.357Z,205.95
2023-03-04T00:42:42.565Z,207.61
2023-03-04T00:43:42.768Z,207.77
2023-03-04T00:44:42.972Z,208.76
2023-03-04T00:45:43.220Z,209.71
2023-03-04T00:46:43.381Z,211.20
2023-03-04T00:47:43.594Z,211.85
2023-03-04T00:48:43.793Z,211.11
2023-03-04T00:49:43.996Z,210.74
2023-03-04T00:50:44.186Z,211.16
2023-03-04T00:51:44.370Z,210.99
2023-03-04T00:52:44.596Z,211.22
2023-03-04T00:53:44.800Z,210.06
2023-03-04T00:54:45.004Z,208.59
2023-03-04T00:55:45.214Z,207.32
2023-03-04T00:56:45.413Z,206.13
2023-03-04T00:57:45.615Z,203.97
2023-03-04T00:58:45.802Z,202.77
2023-03-04T00:59:45.984Z,202.06
2023-03-04T01:00:46.174Z,202.91
2023-03-04T01:01:46.353Z,204.04
2023-03-04T01:02:46.736Z,203.28
2023-03-04T01:03:46.777Z,201.65
2023-03-04T01:04:47.066Z,200.91
2023-03-04T01:05:47.238Z,202.13
2023-03-04T01:06:47.493Z,200.97
2023-03-04T01:07:47.656Z,202.53
2023-03-04T01:08:47.931Z,202.11
2023-03-04T01:09:48.205Z,203.23
2023-03-04T01:10:48.377Z,202.28
2023-03-04T01:11:48.656Z,200.38
2023-03-04T01:12:48.838Z,202.74
2023-03-04T01:13:49.116Z,204.27
2023-03-04T01:14:49.302Z,202.72
2023-03-04T01:53:57.870Z,217.68
2023-03-04T01:54:58.012Z,219.58
2023-03-04T01:55:58.286Z,220.99
2023-03-04T01:56:58.429Z,221.82
2023-03-04T01:57:58.674Z,221.58
2023-03-04T01:58:58.805Z,222.68
2023-03-04T01:59:59.064Z,224.08
2023-03-04T02:00:59.233Z,223.02
2023-03-04T02:01:59.404Z,222.38
2023-03-04T02:02:59.649Z,223.13
2023-03-04T02:03:59.857Z,223.17
2023-03-04T02:04:59.979Z,222.16
2023-03-04T02:06:00.198Z,222.27
2023-03-04T02:07:00.297Z,224.97
2023-03-04T02:08:00.468Z,225.99
2023-03-04T02:09:00.653Z,224.51
2023-03-04T02:10:00.829Z,224.68
2023-03-04T02:11:01.030Z,223.07
2023-03-04T02:12:01.215Z,222.52
2023-03-04T02:13:01.398Z,223.22
2023-03-04T02:14:01.612Z,221.16
2023-03-04T02:15:01.784Z,219.70
2023-03-04T02:16:02.035Z,220.80
2023-03-04T02:17:02.156Z,221.16
2023-03-04T02:18:02.362Z,221.83
2023-03-04T02:19:02.538Z,223.29
2023-03-04T02:20:02.743Z,224.42
2023-03-04T02:21:02.940Z,223.97
2023-03-04T02:22:03.125Z,221.98
2023-03-04T02:23:03.303Z,217.91
2023-03-04T02:24:03.499Z,216.52
2023-03-04T02:25:03.700Z,215.84
2023-03-04T02:26:03.878Z,215.14
2023-03-04T02:27:04.059Z,214.70
2023-03-04T02:28:04.248Z,215.54
2023-03-04T02:29:04.420Z,217.90
2023-03-04T02:30:04.680Z,218.32
2023-03-04T02:31:04.957Z,218.21
2023-03-04T02:32:05.079Z,219.02
2023-03-04T02:33:05.304Z,218.71
2023-03-04T02:34:05.566Z,218.09
2023-03-04T02:35:05.777Z,218.76
2023-03-04T02:36:06.006Z,218.51
2023-03-04T02:37:06.123Z,219.88
2023-03-04T02:38:06.424Z,221.80
2023-03-04T02:39:06.646Z,219.88
2023-03-04T02:40:06.836Z,220.26
2023-03-04T02:45:07.804Z,218.99
2023-03-04T02:49:08.516Z,222.18
2023-03-04T03:34:17.798Z,218.77
2023-03-04T03:35:17.909Z,221.50
2023-03-04T03:36:18.209Z,223.74
2023-03-04T03:38:18.552Z,223.16
2023-03-04T03:39:18.679Z,222.90
2023-03-04T03:40:18.971Z,223.60
2023-03-04T03:41:19.157Z,224.65
2023-03-04T03:42:19.374Z,225.75
2023-03-04T03:43:19.593Z,226.22
2023-03-04T03:44:19.692Z,224.37
2023-03-04T03:45:19.976Z,223.80
2023-03-04T03:46:20.090Z,224.31
2023-03-04T04:45:27.726Z,242.45
2023-03-04T04:46:27.798Z,240.17
2023-03-04T04:47:27.869Z,240.17
2023-03-04T04:48:27.931Z,239.20
2023-03-04T04:49:28.000Z,238.34
2023-03-04T04:50:28.061Z,235.90
2023-03-04T04:51:28.141Z,234.65
2023-03-04T04:52:28.210Z,234.14
2023-03-04T04:57:28.575Z,232.42
2023-03-04T04:58:28.632Z,232.83
2023-03-04T04:59:28.715Z,234.50
2023-03-04T05:00:28.768Z,237.60
2023-03-04T05:01:28.904Z,237.61
2023-03-04T05:02:28.914Z,235.01
2023-03-04T05:03:28.973Z,235.86
2023-03-04T05:04:29.045Z,238.50
2023-03-04T05:05:30.049Z,241.63
2023-03-04T05:06:29.161Z,242.48
2023-03-04T05:07:29.228Z,241.23
2023-03-04T05:08:29.287Z,241.63
2023-03-04T05:09:29.330Z,242.42
2023-03-04T05:10:29.391Z,243.73
2023-03-04T05:11:29.452Z,245.54
2023-03-04T05:12:29.526Z,249.23
2023-03-04T05:13:29.572Z,250.00
2023-03-04T05:14:29.638Z,250.00
2023-03-04T05:15:29.778Z,250.00
2023-03-04T05:16:29.748Z,250.00
2023-03-04T05:17:29.803Z,249.79
2023-03-04T05:18:29.877Z,249.06
2023-03-04T05:19:29.940Z,249.84
2023-03-04T05:20:29.990Z,250.00
2023-03-04T05:21:30.035Z,250.00
2023-03-04T05:22:30.087Z,249.78
2023-03-04T05:23:30.133Z,249.89
2023-03-04T05:24:30.179Z,249.87
2023-03-04T05:25:30.294Z,250.00
2023-03-04T05:26:30.278Z,249.85
2023-03-04T05:27:30.352Z,249.89
2023-03-04T05:28:30.390Z,249.91
2023-03-04T05:29:30.435Z,249.63
2023-03-04T05:30:30.485Z,249.57
2023-03-04T05:31:30.566Z,250.00
2023-03-04T05:32:30.623Z,250.00
2023-03-04T05:33:30.663Z,249.98
2023-03-04T05:34:30.700Z,250.00
2023-03-04T05:35:30.784Z,249.70
2023-03-04T05:36:30.812Z,248.51
2023-03-04T05:37:30.860Z,247.58
2023-03-04T05:38:30.908Z,248.05
2023-03-04T05:39:30.965Z,249.09
2023-03-04T05:40:31.016Z,249.38
2023-03-04T05:41:31.077Z,249.57
2023-03-04T05:42:31.139Z,249.63
2023-03-04T05:43:31.200Z,249.97
2023-03-04T05:44:31.247Z,249.88
2023-03-04T05:45:31.308Z,249.76
2023-03-04T05:46:33.522Z,250.00
2023-03-04T05:47:31.418Z,249.94
2023-03-04T05:48:31.473Z,249.60
2023-03-04T05:49:31.523Z,248.67
2023-03-04T06:56:37.922Z,237.90
2023-03-04T06:57:38.147Z,237.69
2023-03-04T06:58:38.349Z,238.30
2023-03-04T06:59:38.537Z,238.91
2023-03-04T07:00:38.783Z,238.95
2023-03-04T07:01:38.920Z,239.99
2023-03-04T07:02:39.116Z,239.79
2023-03-04T07:03:39.317Z,239.44
2023-03-04T07:04:39.621Z,239.79
2023-03-04T07:05:39.839Z,240.99
2023-03-04T07:06:40.046Z,242.27
2023-03-04T07:07:40.291Z,242.66
2023-03-04T07:08:40.476Z,242.76
2023-03-04T07:09:40.705Z,242.81
2023-03-04T07:10:40.933Z,242.95
2023-03-04T07:11:41.160Z,242.87
2023-03-04T07:12:41.397Z,242.88
2023-03-04T07:13:41.611Z,243.05
2023-03-04T07:14:41.833Z,242.85
2023-03-04T07:15:42.056Z,242.93
2023-03-04T07:16:42.312Z,242.62
2023-03-04T07:17:42.504Z,242.72
2023-03-04T07:18:42.720Z,243.40
2023-03-04T07:19:42.940Z,243.53
2023-03-04T07:20:43.136Z,243.56
2023-03-04T07:21:43.347Z,244.12
2023-03-04T07:22:43.567Z,244.33
2023-03-04T07:23:43.795Z,243.82
2023-03-04T07:24:44.098Z,244.04
2023-03-04T07:25:44.226Z,243.57
2023-03-04T07:27:44.676Z,243.23
2023-03-04T07:54:47.764Z,238.50
2023-03-04T07:55:47.845Z,240.34
2023-03-04T07:56:47.923Z,241.40
2023-03-04T07:57:48.006Z,241.63
2023-03-04T07:58:48.083Z,244.59
2023-03-04T07:59:48.137Z,247.45
2023-03-04T08:00:48.211Z,242.48
2023-03-04T08:01:48.287Z,241.52
2023-03-04T08:02:48.401Z,241.34
2023-03-04T08:03:48.450Z,239.02
2023-03-04T08:04:48.496Z,238.08
2023-03-04T08:05:48.580Z,236.23
2023-03-04T08:06:48.659Z,233.90
2023-03-04T08:07:48.733Z,232.17
2023-03-04T08:08:48.812Z,231.88
2023-03-04T08:09:48.883Z,230.65
2023-03-04T08:10:48.957Z,233.79
2023-03-04T08:11:49.020Z,235.12
2023-03-04T08:12:49.077Z,233.50
2023-03-04T08:13:49.134Z,234.04
2023-03-04T08:14:49.165Z,230.62
2023-03-04T08:15:49.253Z,228.83
2023-03-04T08:16:49.261Z,228.88
2023-03-04T08:17:49.292Z,225.17
2023-03-04T08:18:49.348Z,221.46
2023-03-04T08:19:49.363Z,221.69
2023-03-04T08:20:49.396Z,220.00
2023-03-04T08:21:49.439Z,211.83
2023-03-04T08:22:49.481Z,204.18
2023-03-04T08:23:49.557Z,198.86
2023-03-04T08:24:49.580Z,195.58
2023-03-04T08:25:49.633Z,189.71
2023-03-04T08:26:49.711Z,189.77
2023-03-04T08:27:49.737Z,193.46
2023-03-04T08:28:49.780Z,191.94
2023-03-04T08:29:49.807Z,187.17
2023-03-04T08:30:49.845Z,186.01
2023-03-04T08:31:50.078Z,185.10
2023-03-04T08:32:49.952Z,184.32
2023-03-04T08:33:49.942Z,184.93
2023-03-04T08:34:49.981Z,184.65
2023-03-04T08:35:50.076Z,185.82
2023-03-04T08:36:50.029Z,183.25
2023-03-04T08:37:50.046Z,180.90
2023-03-04T08:38:50.081Z,181.95
2023-03-04T08:40:50.119Z,179.61
2023-03-04T08:41:50.136Z,179.14
2023-03-04T08:42:50.147Z,179.53
2023-03-04T08:43:50.160Z,177.79
2023-03-04T08:44:50.173Z,178.21
2023-03-04T08:45:50.200Z,176.44
2023-03-04T08:46:50.197Z,171.49
2023-03-04T08:47:50.236Z,167.91
2023-03-04T08:48:50.241Z,167.70
2023-03-04T08:49:50.258Z,167.92
2023-03-04T08:50:50.284Z,167.76
2023-03-04T08:51:50.317Z,167.80
2023-03-04T08:52:50.360Z,167.89
2023-03-04T08:53:50.406Z,159.67
2023-03-04T08:54:50.446Z,150.73
2023-03-04T08:55:50.476Z,137.61
2023-03-04T08:56:50.531Z,133.66
2023-03-04T08:57:50.541Z,134.69
2023-03-04T08:58:50.562Z,135.33
2023-03-04T08:59:50.599Z,132.84
2023-03-04T09:00:50.632Z,128.96
2023-03-04T09:01:50.757Z,128.10
2023-03-04T09:02:50.688Z,119.20
2023-03-04T09:03:50.788Z,118.46
2023-03-04T09:04:50.753Z,118.93
2023-03-04T09:05:50.815Z,113.72
2023-03-04T09:06:52.825Z,110.55
2023-03-04T09:07:50.844Z,108.62
2023-03-04T09:08:50.849Z,103.12
2023-03-04T09:09:50.849Z,96.81
2023-03-04T09:10:50.860Z,94.12
2023-03-04T09:11:50.870Z,95.29
2023-03-04T09:12:50.868Z,94.58
2023-03-04T09:13:50.896Z,87.84
2023-03-04T09:15:04.487Z,82.23
2023-03-04T09:16:50.851Z,73.25
2023-03-04T09:17:50.840Z,67.01
2023-03-04T09:18:50.838Z,59.73
2023-03-04T09:19:50.828Z,44.54
2023-03-04T09:20:50.812Z,30.50
2023-03-04T09:21:50.818Z,26.60
2023-03-04T09:22:50.829Z,25.88
2023-03-04T09:23:50.816Z,29.12
2023-03-04T09:24:50.850Z,26.84
2023-03-04T09:25:50.894Z,24.94
2023-03-04T09:26:50.932Z,24.45
2023-03-04T09:27:50.978Z,13.31
2023-03-04T09:28:51.030Z,7.09
2023-03-04T09:29:51.067Z,13.62
2023-03-04T09:30:51.093Z,14.05
2023-03-04T09:31:51.132Z,11.84
2023-03-04T09:32:51.196Z,6.75
2023-03-04T09:33:51.193Z,12.23
2023-03-04T09:34:51.215Z,4.19
2023-03-04T09:35:51.288Z,4.52
2023-03-04T09:36:51.489Z,2.37
2023-03-04T10:13:57.857Z,31.43
2023-03-04T10:14:58.207Z,31.25
2023-03-04T10:15:58.262Z,28.25
2023-03-04T10:16:58.432Z,24.65
2023-03-04T10:17:58.620Z,26.17
2023-03-04T10:18:58.808Z,29.45
2023-03-04T10:19:59.001Z,27.51
2023-03-04T10:20:59.187Z,22.02
2023-03-04T10:21:59.409Z,14.68
2023-03-04T10:22:59.511Z,14.88
2023-03-04T10:23:59.913Z,17.29
2023-03-04T10:25:00.009Z,20.28
2023-03-04T10:26:00.225Z,24.35
2023-03-04T10:27:00.451Z,28.31
2023-03-04T10:28:00.659Z,27.68
2023-03-04T10:29:00.869Z,31.29
2023-03-04T10:30:01.206Z,32.07
2023-03-04T10:31:01.274Z,30.05
2023-03-04T10:32:01.661Z,31.88
2023-03-04T10:33:01.665Z,33.00
2023-03-04T10:34:01.839Z,32.69
2023-03-04T10:35:02.019Z,31.80
2023-03-04T11:08:07.782Z,33.02
2023-03-04T11:09:07.923Z,32.92
2023-03-04T11:10:08.043Z,33.13
2023-03-04T11:11:08.015Z,29.61
2023-03-04T11:12:07.997Z,34.09
2023-03-04T11:13:07.966Z,37.25
2023-03-04T11:14:07.932Z,38.55
2023-03-04T11:15:07.885Z,35.51
2023-03-04T11:16:08.036Z,38.23
2023-03-04T11:17:07.836Z,39.00
2023-03-04T11:18:07.813Z,40.45
2023-03-04T11:19:07.784Z,42.60
2023-03-04T11:20:07.726Z,41.15
2023-03-04T12:47:07.746Z,28.01
2023-03-04T12:48:07.941Z,31.50
2023-03-04T12:49:08.067Z,33.11
2023-03-04T12:50:08.213Z,30.18
2023-03-04T12:51:08.358Z,26.47
2023-03-04T12:52:08.510Z,25.58
2023-03-04T12:53:08.657Z,25.05
2023-03-04T12:54:08.812Z,25.67
2023-03-04T12:55:08.960Z,26.08
2023-03-04T12:56:10.418Z,25.15
2023-03-04T12:57:09.071Z,26.92
2023-03-04T12:58:09.033Z,29.40
2023-03-04T12:59:08.990Z,31.55
2023-03-04T13:00:08.953Z,32.21
2023-03-04T13:01:08.883Z,33.69
2023-03-04T13:02:08.940Z,35.09
2023-03-04T13:03:08.897Z,34.49
2023-03-04T13:04:08.680Z,32.59
2023-03-04T13:05:08.629Z,32.92
2023-03-04T13:06:08.568Z,30.38
2023-03-04T13:07:08.490Z,27.38
2023-03-04T13:08:08.430Z,26.01
2023-03-04T13:09:08.387Z,24.73
2023-03-04T13:10:08.304Z,28.12
2023-03-04T13:11:08.251Z,29.54
2023-03-04T13:12:08.195Z,30.99
2023-03-04T13:18:07.822Z,28.50
2023-03-04T13:19:07.801Z,33.51
2023-03-04T13:20:07.761Z,31.67
2023-03-04T13:21:07.715Z,28.04
2023-03-04T13:34:07.733Z,35.54
2023-03-04T13:35:07.946Z,36.38
2023-03-04T13:36:08.066Z,37.37
2023-03-04T13:37:08.175Z,37.36
2023-03-04T13:38:08.341Z,37.44
2023-03-04T13:39:08.508Z,35.04
2023-03-04T13:41:08.810Z,33.01
2023-03-04T13:42:08.935Z,29.90
2023-03-04T13:43:09.048Z,30.44
2023-03-04T13:44:09.288Z,26.30
2023-03-04T13:45:09.445Z,30.20
2023-03-04T13:46:09.599Z,32.69
2023-03-04T14:45:17.839Z,36.62
2023-03-04T14:46:18.079Z,36.00
2023-03-04T14:47:18.209Z,31.40
2023-03-04T14:48:18.374Z,30.79
2023-03-04T14:49:18.546Z,28.99
2023-03-04T15:46:27.817Z,44.56
2023-03-04T15:47:27.903Z,36.20
2023-03-04T15:48:28.043Z,39.16
2023-03-04T15:49:28.312Z,44.84
2023-03-04T15:50:28.405Z,39.67
2023-03-04T15:51:28.537Z,34.08
2023-03-04T15:52:28.670Z,32.84
2023-03-04T15:53:28.823Z,30.56
2023-03-04T15:54:29.025Z,27.78
2023-03-04T15:55:29.138Z,33.22
2023-03-04T15:56:29.251Z,34.79
2023-03-04T15:57:29.446Z,35.90
2023-03-04T15:58:29.574Z,37.75
2023-03-04T15:59:29.795Z,43.26
2023-03-04T16:00:29.906Z,40.59
2023-03-04T16:01:30.098Z,40.35
2023-03-04T16:02:30.164Z,46.24
2023-03-04T16:03:30.302Z,46.35
2023-03-04T16:04:30.437Z,47.94
2023-03-04T16:05:30.555Z,53.07
2023-03-04T16:06:30.787Z,47.12
2023-03-04T16:07:30.900Z,61.59
2023-03-04T16:08:31.016Z,66.75
2023-03-04T16:09:31.145Z,69.76
2023-03-04T16:10:31.249Z,60.48
2023-03-04T16:11:31.361Z,60.03
2023-03-04T16:12:31.585Z,63.05
2023-03-04T16:13:31.667Z,66.64
2023-03-04T17:22:37.789Z,122.84
2023-03-04T17:23:37.993Z,112.34
2023-03-04T17:24:38.206Z,110.82
2023-03-04T17:25:38.422Z,95.07
2023-03-04T17:26:38.670Z,83.82
2023-03-04T17:27:38.816Z,81.50
2023-03-04T17:28:38.996Z,81.68
2023-03-04T17:29:39.130Z,90.06
2023-03-04T17:30:39.289Z,96.74
2023-03-04T17:31:39.486Z,103.49
2023-03-04T17:32:39.640Z,108.26
2023-03-04T17:33:39.825Z,106.52
2023-03-04T17:34:40.031Z,107.07
2023-03-04T17:35:40.284Z,100.14
2023-03-04T17:36:40.405Z,98.00
2023-03-04T17:37:40.613Z,103.47
2023-03-04T17:38:40.792Z,106.84
2023-03-04T17:39:40.969Z,120.92
2023-03-04T17:40:41.068Z,117.02
2023-03-04T17:41:41.357Z,119.80
2023-03-04T17:42:41.480Z,123.12
2023-03-04T17:43:41.634Z,127.22
2023-03-04T17:44:41.856Z,127.81
2023-03-04T17:45:42.036Z,123.50
2023-03-04T17:46:42.117Z,125.70
2023-03-04T17:47:42.241Z,119.07
2023-03-04T17:48:42.490Z,127.36
2023-03-04T17:49:42.708Z,130.10
2023-03-04T17:50:42.886Z,132.52
2023-03-04T17:51:43.077Z,136.54
2023-03-04T18:45:47.902Z,142.78
2023-03-04T18:46:47.968Z,140.50
2023-03-04T18:47:48.216Z,141.90
2023-03-04T18:48:48.310Z,146.44
2023-03-04T18:49:48.637Z,149.06
2023-03-04T18:50:48.809Z,147.13
2023-03-04T18:51:48.986Z,147.11
2023-03-04T18:52:49.142Z,143.17
2023-03-04T18:53:49.310Z,148.14
2023-03-04T18:54:49.477Z,151.08
2023-03-04T18:55:49.688Z,152.73
2023-03-04T18:56:49.876Z,148.20
2023-03-04T18:57:50.062Z,146.77
2023-03-04T18:58:50.245Z,146.75
2023-03-04T18:59:50.377Z,147.81
2023-03-04T19:00:50.636Z,151.97
2023-03-04T19:01:50.734Z,151.60
2023-03-04T19:02:50.912Z,156.40
2023-03-04T19:03:51.144Z,156.63
2023-03-04T19:04:51.241Z,156.24
2023-03-04T19:05:51.496Z,158.05
2023-03-04T19:06:51.649Z,166.85
2023-03-04T19:07:51.830Z,170.15
2023-03-04T19:08:51.987Z,172.94
2023-03-04T19:09:52.184Z,169.37
2023-03-04T19:10:52.431Z,168.38
2023-03-04T19:11:52.606Z,166.96
2023-03-04T19:12:52.797Z,168.14
2023-03-04T19:13:53.024Z,169.72
2023-03-04T19:14:53.126Z,172.14
2023-03-04T19:15:53.274Z,173.98
2023-03-04T19:16:53.486Z,173.41
2023-03-04T19:17:53.702Z,171.34
2023-03-04T19:19:54.131Z,169.98
2023-03-04T19:20:54.278Z,171.19
2023-03-04T19:21:54.443Z,171.92
2023-03-04T19:22:54.676Z,172.53
2023-03-04T19:23:54.840Z,168.71
2023-03-04T19:24:55.099Z,165.34
2023-03-04T19:25:55.236Z,167.59
2023-03-04T19:26:55.467Z,166.58
2023-03-04T19:27:55.601Z,166.91
2023-03-04T19:28:55.762Z,171.12
2023-03-04T19:29:55.954Z,174.41
2023-03-04T19:30:56.285Z,177.25
2023-03-04T19:31:56.450Z,181.01
2023-03-04T19:32:56.576Z,180.99
2023-03-04T19:33:56.810Z,182.88
2023-03-04T19:34:57.011Z,186.26
2023-03-04T19:35:57.224Z,188.47
2023-03-04T19:36:57.386Z,189.59
2023-03-04T19:38:57.810Z,177.23
2023-03-04T19:39:58.247Z,173.46
2023-03-04T19:40:58.098Z,172.84
2023-03-04T19:41:58.285Z,174.54
2023-03-04T19:42:58.519Z,167.64
2023-03-04T19:43:58.744Z,163.99
2023-03-04T19:44:58.881Z,163.64
2023-03-04T19:45:59.192Z,166.06
2023-03-04T19:46:59.347Z,159.68
2023-03-04T19:47:59.569Z,158.39
2023-03-04T19:48:59.760Z,164.87
2023-03-04T19:49:59.929Z,172.00
2023-03-04T19:51:00.149Z,180.31
2023-03-04T19:52:00.390Z,181.76
2023-03-04T19:53:00.451Z,182.11
2023-03-04T20:31:07.814Z,186.08
2023-03-04T20:32:08.008Z,184.09
2023-03-04T20:33:08.170Z,183.04
2023-03-04T20:34:08.325Z,183.51
2023-03-04T20:35:08.561Z,186.24
2023-03-04T20:36:08.728Z,192.82
2023-03-04T20:37:08.699Z,192.00
2023-03-04T20:38:08.848Z,189.49
2023-03-04T20:39:21.780Z,185.88
2023-03-04T20:41:09.047Z,181.31
2023-03-04T20:42:09.045Z,178.92
2023-03-04T20:43:09.049Z,175.66
2023-03-04T20:44:09.052Z,175.81
2023-03-04T20:45:09.054Z,180.54
2023-03-04T20:46:09.081Z,185.75
2023-03-04T20:47:09.064Z,189.58
2023-03-04T20:48:09.069Z,195.39
2023-03-04T20:49:09.076Z,200.67
2023-03-04T20:50:09.088Z,202.02
2023-03-04T20:51:09.115Z,201.06
2023-03-04T20:52:09.096Z,200.59
2023-03-04T20:53:09.078Z,201.25
2023-03-04T20:54:09.092Z,197.91
2023-03-04T20:55:09.373Z,191.58
2023-03-04T20:56:09.077Z,191.50
2023-03-04T20:57:09.096Z,193.57
2023-03-04T20:58:09.111Z,191.31
2023-03-04T20:59:09.164Z,184.77
2023-03-04T21:00:09.133Z,182.00
2023-03-04T21:01:09.148Z,182.78
2023-03-04T21:02:09.171Z,180.96
2023-03-04T21:03:09.193Z,174.02
2023-03-04T21:04:09.236Z,173.83
2023-03-04T21:05:09.214Z,172.70
2023-03-04T21:06:09.285Z,172.32
2023-03-04T21:07:09.262Z,173.63
2023-03-04T21:08:09.312Z,181.56
2023-03-04T21:09:09.361Z,184.82
2023-03-04T21:10:09.387Z,180.07
2023-03-04T21:11:09.407Z,175.84
2023-03-04T21:12:09.439Z,181.49
2023-03-04T21:13:09.446Z,185.75
2023-03-04T21:14:09.481Z,183.04
2023-03-04T21:15:09.487Z,179.08
2023-03-04T21:16:09.523Z,178.49
2023-03-04T21:17:09.536Z,179.76
2023-03-04T21:18:09.572Z,180.67
2023-03-04T21:19:09.585Z,179.55
2023-03-04T21:20:09.615Z,180.53
2023-03-04T21:21:09.643Z,180.46
2023-03-04T21:22:09.670Z,179.12
2023-03-04T21:23:09.724Z,175.89
2023-03-04T21:24:09.736Z,175.29
2023-03-04T21:25:09.747Z,177.44
2023-03-04T21:26:09.786Z,181.51
2023-03-04T21:27:09.837Z,177.84
2023-03-04T21:28:09.833Z,178.72
2023-03-04T21:29:09.852Z,183.45
2023-03-04T21:30:09.878Z,188.99
2023-03-04T21:31:09.933Z,190.95
2023-03-04T21:32:22.669Z,189.38
2023-03-04T21:33:11.007Z,185.02
2023-03-04T21:34:09.967Z,183.10
2023-03-04T21:35:09.986Z,184.31
2023-03-04T21:36:09.997Z,180.68
2023-03-04T21:37:10.005Z,178.50
2023-03-04T21:38:10.027Z,179.43
2023-03-04T21:39:10.026Z,181.32
2023-03-04T21:40:10.053Z,184.07
2023-03-04T21:41:10.064Z,178.57
2023-03-04T21:42:10.091Z,183.83
2023-03-04T21:43:10.126Z,197.71
2023-03-04T21:44:18.035Z,205.05
2023-03-04T21:45:11.161Z,205.12
2023-03-04T21:46:10.158Z,205.24
2023-03-04T21:47:10.184Z,205.43
2023-03-04T21:48:10.205Z,209.75
2023-03-04T21:49:10.225Z,219.38
2023-03-04T21:50:10.253Z,218.13
2023-03-04T21:51:10.260Z,216.84
2023-03-04T21:52:10.292Z,217.29
2023-03-04T21:53:10.310Z,211.30
2023-03-04T21:54:10.320Z,210.23
2023-03-04T21:55:10.340Z,211.56
2023-03-04T21:56:10.359Z,207.85
2023-03-04T21:57:10.374Z,204.03
2023-03-04T21:58:10.411Z,196.66
2023-03-04T21:59:10.419Z,192.35
2023-03-04T22:00:10.443Z,192.47
2023-03-04T22:01:10.521Z,190.32
2023-03-04T22:02:10.538Z,191.77
2023-03-04T22:03:10.545Z,191.23
2023-03-04T22:04:10.644Z,192.69
2023-03-04T22:05:10.690Z,195.81
2023-03-04T22:06:10.768Z,199.54
2023-03-04T22:07:10.829Z,202.65
2023-03-04T22:08:10.884Z,205.32
2023-03-04T22:09:10.972Z,209.12
2023-03-04T22:10:11.031Z,208.33
2023-03-04T22:11:11.119Z,205.16
2023-03-04T22:12:11.185Z,200.55
2023-03-04T22:13:11.258Z,199.62
2023-03-04T22:14:11.330Z,203.38
2023-03-04T22:15:11.418Z,207.71
2023-03-04T22:16:11.527Z,211.20
2023-03-04T22:17:11.687Z,215.53
2023-03-04T22:18:11.679Z,212.50
2023-03-04T22:19:11.793Z,208.99
2023-03-04T22:20:11.862Z,208.59
2023-03-04T22:21:11.943Z,207.60
2023-03-04T22:22:12.044Z,202.22
2023-03-04T22:23:12.141Z,197.97
2023-03-04T22:24:12.211Z,194.40
2023-03-04T22:25:12.294Z,196.88
2023-03-04T22:26:12.409Z,196.82
2023-03-04T22:27:12.481Z,192.56
2023-03-04T22:28:12.592Z,183.31
2023-03-04T22:29:12.631Z,179.90
2023-03-04T22:30:12.727Z,176.79
2023-03-04T22:31:12.864Z,176.73
2023-03-04T22:32:12.984Z,176.16
2023-03-04T22:33:13.008Z,174.54
2023-03-04T22:34:13.092Z,175.40
2023-03-04T22:35:13.196Z,169.20
2023-03-04T22:36:13.289Z,169.44
2023-03-04T22:37:13.378Z,172.80
2023-03-04T22:38:13.469Z,177.63
2023-03-04T22:39:13.582Z,181.10
2023-03-04T22:40:13.688Z,182.24
2023-03-04T22:41:13.747Z,179.38
2023-03-04T22:42:13.909Z,181.56
2023-03-04T22:43:14.065Z,181.30
2023-03-04T22:44:14.205Z,174.24
2023-03-04T22:45:14.531Z,174.57
2023-03-04T22:46:14.801Z,184.35
2023-03-04T22:47:14.909Z,208.18
2023-03-04T22:48:15.144Z,215.41
2023-03-04T22:49:15.359Z,201.54
2023-03-04T22:50:15.565Z,190.67
2023-03-04T22:51:15.802Z,188.76
2023-03-04T22:52:16.015Z,190.40
2023-03-04T22:53:16.205Z,200.58
2023-03-04T22:54:16.454Z,218.53
2023-03-04T22:55:16.633Z,220.43
2023-03-04T22:56:16.855Z,218.13
2023-03-04T22:57:17.064Z,213.50
2023-03-04T22:58:17.292Z,208.95
2023-03-04T22:59:17.535Z,202.51
2023-03-04T23:00:17.747Z,198.84
2023-03-04T23:01:18.016Z,194.13
2023-03-04T23:02:18.227Z,187.71
2023-03-04T23:03:18.396Z,181.38
2023-03-04T23:04:18.637Z,177.43
2023-03-04T23:05:18.831Z,173.21
2023-03-04T23:06:19.060Z,171.50
2023-03-04T23:07:19.259Z,172.25
2023-03-04T23:45:27.748Z,188.50
2023-03-04T23:46:28.000Z,190.97
2023-03-04T23:47:28.169Z,187.92
2023-03-04T23:48:28.384Z,182.77
2023-03-04T23:49:28.625Z,176.46
2023-03-04T23:50:28.868Z,173.02
2023-03-04T23:51:29.064Z,173.26
2023-03-04T23:52:29.292Z,175.45
2023-03-04T23:53:29.501Z,180.56
2023-03-04T23:54:29.711Z,186.79
2023-03-04T23:55:29.946Z,183.78
2023-03-04T23:56:30.151Z,178.08
2023-03-04T23:57:30.368Z,177.85
2023-03-04T23:58:30.575Z,180.78
2023-03-04T23:59:30.785Z,184.97
